createdAt,value
2018-06-16T00:00:40.914Z,9.30
2018-06-16T00:03:09.564Z,10.47
2018-06-16T00:05:38.185Z,8.70
2018-06-16T00:08:06.979Z,8.20
2018-06-16T00:10:35.486Z,8.70
2018-06-16T00:13:04.085Z,7.00
2018-06-16T00:15:32.709Z,7.70
2018-06-16T00:18:01.259Z,8.57
2018-06-16T00:20:29.877Z,8.17
2018-06-16T00:22:58.513Z,9.87
2018-06-16T00:25:27.081Z,8.53
2018-06-16T00:27:55.797Z,9.77
2018-06-16T00:30:24.382Z,9.43
2018-06-16T00:32:52.961Z,9.03
2018-06-16T00:35:21.645Z,10.73
2018-06-16T00:37:50.271Z,9.33
2018-06-16T00:40:18.948Z,10.17
2018-06-16T00:42:47.601Z,10.70
2018-06-16T00:45:16.165Z,11.33
2018-06-16T00:47:44.751Z,9.73
2018-06-16T00:50:13.305Z,12.53
2018-06-16T00:52:41.868Z,9.87
2018-06-16T00:55:10.746Z,8.83
2018-06-16T00:57:45.212Z,9.70
2018-06-16T01:00:14.205Z,9.20
2018-06-16T01:02:42.680Z,8.60
2018-06-16T01:05:11.830Z,10.67
2018-06-16T01:07:40.438Z,10.10
2018-06-16T01:10:10.323Z,9.77
2018-06-16T01:12:39.654Z,10.17
2018-06-16T01:15:08.716Z,10.60
2018-06-16T01:17:37.200Z,14.13
2018-06-16T01:20:05.878Z,11.50
2018-06-16T01:22:34.405Z,12.17
2018-06-16T01:25:03.603Z,10.53
2018-06-16T01:27:32.123Z,10.33
2018-06-16T01:30:00.641Z,11.57
2018-06-16T01:32:29.518Z,10.63
2018-06-16T01:34:58.133Z,14.10
2018-06-16T01:37:26.886Z,13.97
2018-06-16T01:39:55.520Z,11.27
2018-06-16T01:42:24.030Z,13.90
2018-06-16T01:44:52.697Z,15.80
2018-06-16T01:47:21.323Z,14.20
2018-06-16T01:49:50.356Z,12.43
2018-06-16T01:52:18.905Z,12.47
2018-06-16T01:54:47.480Z,14.60
2018-06-16T01:57:16.019Z,12.20
2018-06-16T01:59:44.772Z,11.37
2018-06-16T02:02:13.363Z,12.77
2018-06-16T02:04:42.013Z,11.33
2018-06-16T02:07:10.839Z,11.93
2018-06-16T02:09:39.554Z,11.23
2018-06-16T02:12:08.206Z,11.50
2018-06-16T02:14:36.894Z,14.57
2018-06-16T02:17:05.555Z,12.83
2018-06-16T02:19:34.268Z,13.67
2018-06-16T02:22:02.839Z,12.77
2018-06-16T02:24:31.464Z,11.70
2018-06-16T02:27:00.646Z,11.33
2018-06-16T02:29:30.196Z,11.97
2018-06-16T02:31:58.774Z,11.93
2018-06-16T02:34:27.622Z,13.70
2018-06-16T02:36:56.246Z,12.37
2018-06-16T02:39:24.870Z,10.97
2018-06-16T02:41:53.435Z,13.10
2018-06-16T02:44:21.996Z,15.70
2018-06-16T02:46:50.613Z,14.53
2018-06-16T02:49:19.111Z,12.33
2018-06-16T02:51:47.748Z,10.77
2018-06-16T02:54:16.253Z,12.80
2018-06-16T02:56:45.427Z,11.10
2018-06-16T02:59:14.011Z,11.20
2018-06-16T03:01:42.559Z,11.47
2018-06-16T03:04:11.245Z,11.60
2018-06-16T03:06:39.895Z,14.53
2018-06-16T03:09:09.266Z,12.47
2018-06-16T03:11:38.158Z,17.87
2018-06-16T03:14:07.001Z,12.13
2018-06-16T03:16:35.542Z,14.50
2018-06-16T03:19:04.047Z,12.63
2018-06-16T03:21:32.775Z,15.30
2018-06-16T03:24:01.308Z,16.03
2018-06-16T03:26:30.304Z,15.80
2018-06-16T03:28:59.181Z,17.73
2018-06-16T03:31:28.053Z,13.17
2018-06-16T03:33:57.590Z,13.23
2018-06-16T03:36:26.147Z,13.27
2018-06-16T03:38:54.834Z,14.17
2018-06-16T03:41:23.492Z,12.93
2018-06-16T03:43:52.420Z,13.40
2018-06-16T03:46:21.317Z,16.97
2018-06-16T03:48:49.931Z,13.77
2018-06-16T03:51:18.631Z,14.50
2018-06-16T03:53:47.396Z,17.13
2018-06-16T03:56:16.006Z,15.00
2018-06-16T03:58:44.906Z,14.93
2018-06-16T04:01:13.439Z,15.33
2018-06-16T04:03:42.057Z,15.03
2018-06-16T04:06:11.329Z,18.10
2018-06-16T04:08:40.265Z,15.47
2018-06-16T04:11:09.501Z,15.23
2018-06-16T04:13:39.975Z,14.97
2018-06-16T04:16:08.495Z,14.33
2018-06-16T04:18:37.154Z,20.40
2018-06-16T04:21:08.683Z,16.57
2018-06-16T04:23:37.359Z,13.53
2018-06-16T04:26:06.110Z,15.13
2018-06-16T04:28:34.863Z,16.93
2018-06-16T04:31:03.684Z,12.40
2018-06-16T04:33:32.303Z,15.07
2018-06-16T04:36:01.160Z,14.73
2018-06-16T04:38:30.030Z,12.27
2018-06-16T04:40:58.656Z,14.53
2018-06-16T04:43:27.274Z,14.23
2018-06-16T04:45:56.676Z,14.30
2018-06-16T04:48:26.219Z,12.97
2018-06-16T04:50:54.808Z,12.50
2018-06-16T04:53:23.367Z,12.80
2018-06-16T04:55:52.026Z,15.20
2018-06-16T04:58:20.608Z,14.17
2018-06-16T05:00:49.484Z,9.10
2018-06-16T05:03:17.981Z,13.40
2018-06-16T05:05:46.807Z,12.27
2018-06-16T05:08:15.318Z,11.00
2018-06-16T05:10:43.866Z,12.03
2018-06-16T05:13:12.404Z,14.57
2018-06-16T05:15:42.398Z,10.67
2018-06-16T05:18:11.080Z,11.17
2018-06-16T05:20:39.685Z,12.20
2018-06-16T05:23:08.392Z,13.00
2018-06-16T05:25:36.967Z,12.60
2018-06-16T05:28:05.561Z,14.03
2018-06-16T05:30:34.173Z,10.67
2018-06-16T05:33:02.865Z,10.57
2018-06-16T05:35:31.431Z,13.87
2018-06-16T05:38:00.095Z,11.60
2018-06-16T05:40:28.705Z,12.07
2018-06-16T05:42:57.235Z,12.27
2018-06-16T05:45:25.732Z,13.97
2018-06-16T05:47:54.243Z,13.67
2018-06-16T05:50:22.768Z,10.40
2018-06-16T05:52:51.666Z,12.10
2018-06-16T05:55:20.202Z,12.17
2018-06-16T05:57:48.888Z,12.03
2018-06-16T06:00:17.462Z,13.53
2018-06-16T06:02:45.950Z,12.10
2018-06-16T06:05:14.554Z,10.97
2018-06-16T06:07:43.096Z,17.07
2018-06-16T06:10:11.691Z,18.60
2018-06-16T06:12:40.357Z,11.17
2018-06-16T06:15:08.875Z,11.17
2018-06-16T06:17:37.379Z,11.50
2018-06-16T06:20:06.529Z,14.00
2018-06-16T06:22:35.215Z,9.20
2018-06-16T06:25:04.055Z,10.33
2018-06-16T06:27:32.739Z,15.70
2018-06-16T06:30:01.335Z,13.73
2018-06-16T06:32:29.893Z,9.30
2018-06-16T06:35:00.030Z,8.47
2018-06-16T06:37:28.570Z,9.97
2018-06-16T06:39:57.153Z,10.33
2018-06-16T06:42:25.695Z,8.27
2018-06-16T06:44:54.230Z,9.40
2018-06-16T06:47:22.811Z,8.83
2018-06-16T06:49:51.455Z,9.40
2018-06-16T06:52:20.041Z,8.70
2018-06-16T06:54:48.538Z,6.83
2018-06-16T06:57:17.147Z,7.67
2018-06-16T06:59:45.780Z,8.37
2018-06-16T07:02:14.315Z,7.20
2018-06-16T07:04:43.057Z,9.67
2018-06-16T07:07:11.686Z,7.50
2018-06-16T07:09:43.258Z,8.27
2018-06-16T07:12:11.941Z,6.50
2018-06-16T07:14:40.615Z,7.67
2018-06-16T07:17:09.695Z,8.13
2018-06-16T07:19:38.722Z,6.27
2018-06-16T07:22:07.337Z,6.77
2018-06-16T07:24:35.914Z,6.90
2018-06-16T07:27:04.762Z,5.80
2018-06-16T07:29:33.242Z,5.60
2018-06-16T07:32:02.200Z,6.00
2018-06-16T07:34:30.806Z,8.07
2018-06-16T07:36:59.774Z,7.03
2018-06-16T07:39:28.282Z,7.97
2018-06-16T07:41:56.901Z,6.90
2018-06-16T07:44:26.100Z,5.60
2018-06-16T07:46:54.638Z,6.90
2018-06-16T07:49:23.249Z,6.43
2018-06-16T07:51:53.066Z,5.47
2018-06-16T07:54:22.358Z,5.85
2018-06-16T07:56:51.426Z,5.60
2018-06-16T07:59:20.024Z,6.17
2018-06-16T08:04:48.067Z,3.58
2018-06-16T08:07:17.227Z,3.90
2018-06-16T08:09:45.740Z,3.77
2018-06-16T08:12:14.592Z,5.50
2018-06-16T08:14:44.632Z,5.50
2018-06-16T08:17:13.213Z,3.47
2018-06-16T08:19:41.942Z,3.47
2018-06-16T08:22:10.465Z,3.30
2018-06-16T08:24:40.003Z,3.72
2018-06-16T08:27:08.938Z,4.33
2018-06-16T08:29:37.547Z,6.43
2018-06-16T08:32:06.532Z,3.27
2018-06-16T08:34:35.501Z,4.10
2018-06-16T08:37:04.176Z,4.67
2018-06-16T08:39:32.678Z,3.00
2018-06-16T08:42:01.645Z,5.28
2018-06-16T08:44:30.354Z,2.80
2018-06-16T08:46:59.293Z,2.30
2018-06-16T08:49:28.215Z,3.08
2018-06-16T08:51:57.250Z,2.72
2018-06-16T08:54:27.857Z,3.47
2018-06-16T08:56:56.791Z,4.20
2018-06-16T08:59:25.392Z,3.45
2018-06-16T09:01:53.970Z,8.70
2018-06-16T09:04:22.890Z,3.00
2018-06-16T09:06:51.922Z,2.65
2018-06-16T09:09:20.766Z,3.35
2018-06-16T09:11:49.276Z,3.55
2018-06-16T09:14:17.926Z,3.40
2018-06-16T09:16:48.497Z,4.40
2018-06-16T09:19:17.264Z,3.12
2018-06-16T09:21:45.779Z,4.72
2018-06-16T09:24:14.728Z,2.92
2018-06-16T09:26:43.327Z,5.65
2018-06-16T09:29:12.449Z,2.55
2018-06-16T09:31:41.453Z,2.40
2018-06-16T09:34:10.179Z,2.85
2018-06-16T09:36:39.782Z,2.50
2018-06-16T09:39:10.329Z,2.30
2018-06-16T09:41:39.508Z,2.30
2018-06-16T09:44:09.042Z,2.22
2018-06-16T09:46:37.638Z,3.42
2018-06-16T09:49:06.247Z,2.77
2018-06-16T09:51:34.857Z,3.42
2018-06-16T09:54:04.267Z,8.60
2018-06-16T09:56:32.772Z,4.95
2018-06-16T09:59:01.391Z,2.50
2018-06-16T10:01:30.467Z,4.05
2018-06-16T10:03:59.481Z,1.95
2018-06-16T10:06:28.159Z,3.12
2018-06-16T10:08:56.684Z,2.65
2018-06-16T10:11:26.573Z,2.00
2018-06-16T10:13:55.106Z,3.33
2018-06-16T10:16:23.630Z,3.85
2018-06-16T10:18:53.532Z,2.92
2018-06-16T10:21:22.173Z,2.87
2018-06-16T10:23:50.678Z,3.80
2018-06-16T10:26:19.250Z,4.35
2018-06-16T10:28:47.778Z,2.35
2018-06-16T10:31:16.367Z,2.20
2018-06-16T10:33:44.958Z,1.80
2018-06-16T10:36:13.471Z,4.85
2018-06-16T10:38:42.114Z,2.40
2018-06-16T10:41:10.585Z,3.10
2018-06-16T10:43:39.278Z,2.02
2018-06-16T10:46:07.747Z,2.27
2018-06-16T10:48:36.249Z,2.30
2018-06-16T10:51:05.186Z,2.83
2018-06-16T10:53:33.914Z,2.47
2018-06-16T10:56:02.502Z,2.70
2018-06-16T10:58:31.056Z,2.72
2018-06-16T11:00:59.531Z,3.30
2018-06-16T11:03:28.443Z,3.02
2018-06-16T11:05:57.025Z,2.75
2018-06-16T11:08:25.551Z,3.02
2018-06-16T11:10:54.493Z,4.45
2018-06-16T11:13:23.152Z,2.98
2018-06-16T11:15:51.849Z,3.02
2018-06-16T11:18:20.603Z,2.95
2018-06-16T11:20:49.337Z,1.72
2018-06-16T11:23:18.027Z,2.08
2018-06-16T11:25:46.558Z,2.15
2018-06-16T11:28:15.152Z,2.67
2018-06-16T11:30:43.955Z,2.77
2018-06-16T11:33:12.893Z,2.45
2018-06-16T11:35:41.434Z,2.00
2018-06-16T11:38:10.197Z,2.92
2018-06-16T11:40:38.790Z,2.30
2018-06-16T11:43:07.811Z,3.20
2018-06-16T11:45:36.535Z,1.75
2018-06-16T11:48:05.610Z,2.45
2018-06-16T11:50:34.758Z,1.70
2018-06-16T11:53:03.366Z,6.30
2018-06-16T11:55:32.265Z,1.87
2018-06-16T11:58:00.950Z,3.00
2018-06-16T12:00:29.470Z,2.12
2018-06-16T12:02:57.980Z,2.15
2018-06-16T12:05:26.799Z,3.27
2018-06-16T12:07:55.827Z,2.08
2018-06-16T12:10:24.475Z,1.95
2018-06-16T12:12:53.226Z,3.58
2018-06-16T12:15:22.184Z,2.25
2018-06-16T12:17:50.738Z,2.08
2018-06-16T12:20:19.459Z,3.62
2018-06-16T12:22:48.176Z,3.92
2018-06-16T12:25:19.226Z,2.00
2018-06-16T12:27:47.811Z,2.42
2018-06-16T12:30:16.985Z,1.75
2018-06-16T12:32:45.667Z,2.72
2018-06-16T12:35:14.613Z,2.58
2018-06-16T12:37:43.436Z,2.15
2018-06-16T12:40:12.092Z,2.12
2018-06-16T12:42:40.622Z,1.80
2018-06-16T12:45:09.189Z,2.02
2018-06-16T12:47:38.149Z,2.85
2018-06-16T12:50:06.735Z,2.12
2018-06-16T12:52:35.490Z,2.00
2018-06-16T12:55:04.596Z,1.82
2018-06-16T12:57:33.881Z,2.05
2018-06-16T13:00:03.898Z,2.22
2018-06-16T13:02:33.835Z,2.08
2018-06-16T13:05:03.520Z,1.72
2018-06-16T13:07:34.391Z,1.90
2018-06-16T13:10:04.780Z,3.08
2018-06-16T13:12:34.134Z,1.60
2018-06-16T13:15:03.094Z,3.83
2018-06-16T13:17:32.049Z,1.52
2018-06-16T13:20:00.580Z,1.57
2018-06-16T13:22:29.489Z,2.60
2018-06-16T13:24:58.243Z,2.00
2018-06-16T13:27:26.921Z,2.45
2018-06-16T13:29:55.438Z,1.70
2018-06-16T13:32:25.128Z,3.85
2018-06-16T13:34:54.306Z,2.02
2018-06-16T13:37:23.227Z,2.20
2018-06-16T13:39:51.930Z,4.03
2018-06-16T13:42:20.842Z,2.02
2018-06-16T13:44:49.499Z,3.40
2018-06-16T13:47:18.559Z,4.28
2018-06-16T13:49:47.041Z,3.05
2018-06-16T13:52:15.581Z,2.10
2018-06-16T13:54:44.096Z,2.08
2018-06-16T13:57:12.745Z,3.05
2018-06-16T13:59:41.253Z,2.05
2018-06-16T14:02:09.762Z,2.17
2018-06-16T14:04:38.440Z,2.50
2018-06-16T14:07:07.024Z,2.10
2018-06-16T14:09:35.520Z,2.40
2018-06-16T14:12:04.228Z,3.05
2018-06-16T14:14:32.809Z,2.50
2018-06-16T14:17:01.395Z,2.22
2018-06-16T14:19:29.930Z,2.08
2018-06-16T14:21:58.469Z,2.67
2018-06-16T14:24:27.078Z,3.45
2018-06-16T14:26:55.578Z,3.58
2018-06-16T14:29:24.177Z,2.45
2018-06-16T14:31:52.861Z,2.65
2018-06-16T14:34:21.581Z,2.47
2018-06-16T14:36:50.555Z,2.15
2018-06-16T14:39:19.123Z,3.75
2018-06-16T14:41:48.084Z,2.80
2018-06-16T14:44:16.638Z,2.33
2018-06-16T14:46:45.197Z,2.30
2018-06-16T14:49:14.378Z,2.45
2018-06-16T14:51:42.990Z,4.87
2018-06-16T14:54:11.546Z,2.55
2018-06-16T14:56:40.012Z,2.10
2018-06-16T14:59:08.669Z,2.50
2018-06-16T15:01:37.301Z,3.95
2018-06-16T15:04:05.813Z,3.85
2018-06-16T15:06:34.469Z,2.45
2018-06-16T15:09:03.108Z,1.72
2018-06-16T15:11:31.756Z,2.45
2018-06-16T15:14:00.664Z,2.90
2018-06-16T15:16:29.237Z,3.05
2018-06-16T15:18:58.123Z,4.83
2018-06-16T15:21:26.908Z,4.42
2018-06-16T15:23:55.493Z,2.55
2018-06-16T15:26:24.168Z,4.47
2018-06-16T15:28:52.692Z,2.60
2018-06-16T15:31:21.318Z,2.55
2018-06-16T15:33:49.967Z,2.15
2018-06-16T15:36:19.013Z,2.30
2018-06-16T15:38:47.528Z,2.25
2018-06-16T15:41:16.119Z,4.15
2018-06-16T15:43:44.691Z,2.20
2018-06-16T15:46:13.291Z,3.27
2018-06-16T15:48:42.734Z,4.65
2018-06-16T15:51:11.360Z,4.97
2018-06-16T15:53:40.059Z,2.60
2018-06-16T15:56:08.698Z,2.27
2018-06-16T15:58:37.242Z,2.75
2018-06-16T16:01:05.865Z,5.28
2018-06-16T16:03:34.565Z,4.92
2018-06-16T16:06:03.155Z,4.08
2018-06-16T16:08:31.944Z,3.08
2018-06-16T16:11:00.543Z,2.55
2018-06-16T16:13:29.053Z,2.55
2018-06-16T16:15:57.848Z,3.08
2018-06-16T16:18:26.596Z,4.25
2018-06-16T16:20:55.446Z,2.98
2018-06-16T16:23:23.990Z,1.75
2018-06-16T16:25:52.628Z,5.05
2018-06-16T16:28:21.386Z,3.75
2018-06-16T16:30:49.884Z,2.60
2018-06-16T16:33:18.732Z,2.27
2018-06-16T16:35:47.519Z,2.42
2018-06-16T16:38:16.385Z,2.37
2018-06-16T16:40:44.957Z,2.58
2018-06-16T16:43:13.888Z,1.98
2018-06-16T16:45:42.776Z,2.58
2018-06-16T16:48:11.596Z,1.98
2018-06-16T16:50:40.532Z,2.37
2018-06-16T16:53:09.169Z,1.90
2018-06-16T16:55:38.038Z,2.77
2018-06-16T16:58:06.980Z,3.45
2018-06-16T17:00:35.506Z,1.98
2018-06-16T17:03:04.232Z,2.37
2018-06-16T17:05:32.765Z,2.50
2018-06-16T17:08:01.498Z,3.67
2018-06-16T17:10:30.245Z,2.35
2018-06-16T17:12:59.083Z,2.35
2018-06-16T17:15:28.118Z,2.30
2018-06-16T17:17:57.224Z,2.83
2018-06-16T17:20:25.856Z,2.67
2018-06-16T17:22:54.560Z,2.37
2018-06-16T17:25:23.195Z,2.60
2018-06-16T17:27:51.746Z,4.78
2018-06-16T17:30:20.360Z,2.55
2018-06-16T17:32:49.075Z,4.58
2018-06-16T17:35:17.765Z,4.25
2018-06-16T17:37:46.709Z,2.08
2018-06-16T17:40:15.878Z,3.40
2018-06-16T17:42:44.548Z,2.47
2018-06-16T17:45:13.139Z,5.12
2018-06-16T17:47:41.726Z,3.02
2018-06-16T17:50:10.251Z,2.70
2018-06-16T17:52:38.849Z,10.80
2018-06-16T17:55:07.453Z,3.52
2018-06-16T17:57:36.066Z,3.22
2018-06-16T18:00:05.403Z,2.75
2018-06-16T18:02:34.022Z,3.00
2018-06-16T18:05:02.637Z,7.33
2018-06-16T18:07:31.141Z,4.35
2018-06-16T18:09:59.769Z,3.92
2018-06-16T18:12:28.397Z,3.85
2018-06-16T18:14:57.039Z,4.00
2018-06-16T18:17:25.597Z,4.92
2018-06-16T18:19:54.370Z,3.05
2018-06-16T18:22:23.227Z,7.33
2018-06-16T18:24:52.016Z,4.40
2018-06-16T18:27:20.574Z,12.25
2018-06-16T18:29:50.799Z,4.30
2018-06-16T18:32:19.330Z,5.78
2018-06-16T18:34:47.902Z,4.15
2018-06-16T18:37:16.466Z,6.85
2018-06-16T18:39:45.100Z,7.80
2018-06-16T18:42:13.770Z,7.40
2018-06-16T18:44:42.464Z,7.00
2018-06-16T18:47:11.370Z,6.30
2018-06-16T18:49:39.831Z,4.72
2018-06-16T18:52:08.404Z,8.53
2018-06-16T18:54:36.981Z,6.10
2018-06-16T18:57:05.867Z,4.73
2018-06-16T18:59:34.519Z,6.80
2018-06-16T19:02:03.208Z,7.70
2018-06-16T19:04:31.803Z,6.23
2018-06-16T19:07:00.752Z,9.13
2018-06-16T19:09:29.335Z,6.23
2018-06-16T19:11:57.990Z,5.43
2018-06-16T19:14:26.662Z,9.53
2018-06-16T19:16:55.222Z,5.80
2018-06-16T19:19:24.153Z,9.50
2018-06-16T19:21:53.005Z,8.27
2018-06-16T19:24:22.216Z,6.70
2018-06-16T19:26:50.692Z,7.17
2018-06-16T19:29:19.410Z,7.93
2018-06-16T19:31:47.986Z,7.37
2018-06-16T19:34:16.634Z,7.00
2018-06-16T19:36:45.212Z,6.23
2018-06-16T19:39:13.782Z,8.83
2018-06-16T19:41:42.295Z,6.27
2018-06-16T19:44:11.233Z,4.97
2018-06-16T19:46:39.886Z,7.70
2018-06-16T19:49:09.020Z,8.47
2018-06-16T19:51:38.010Z,8.50
2018-06-16T19:54:07.103Z,5.07
2018-06-16T19:56:36.037Z,7.87
2018-06-16T19:59:04.662Z,6.60
2018-06-16T20:01:33.561Z,7.13
2018-06-16T20:04:02.232Z,7.30
2018-06-16T20:06:30.854Z,8.77
2018-06-16T20:08:59.543Z,7.30
2018-06-16T20:11:28.126Z,5.47
2018-06-16T20:13:57.052Z,7.27
2018-06-16T20:16:25.619Z,7.13
2018-06-16T20:19:24.813Z,7.07
2018-06-16T20:21:53.295Z,8.40
2018-06-16T20:24:21.797Z,13.57
2018-06-16T20:26:50.342Z,7.13
2018-06-16T20:29:18.791Z,6.73
2018-06-16T20:31:47.306Z,9.57
2018-06-16T20:34:15.892Z,9.53
2018-06-16T20:36:44.393Z,6.23
2018-06-16T20:39:12.860Z,6.93
2018-06-16T20:41:41.485Z,9.07
2018-06-16T20:44:10.038Z,6.07
2018-06-16T20:46:39.650Z,10.93
2018-06-16T20:49:08.327Z,8.30
2018-06-16T20:51:36.955Z,9.93
2018-06-16T20:54:05.600Z,5.07
2018-06-16T20:56:34.195Z,10.40
2018-06-16T20:59:02.802Z,11.77
2018-06-16T21:01:31.616Z,8.87
2018-06-16T21:04:00.171Z,7.67
2018-06-16T21:06:28.703Z,6.10
2018-06-16T21:08:57.496Z,8.00
2018-06-16T21:11:26.775Z,7.67
2018-06-16T21:13:55.305Z,9.43
2018-06-16T21:16:23.812Z,10.77
2018-06-16T21:18:52.407Z,7.27
2018-06-16T21:21:21.317Z,6.17
2018-06-16T21:23:49.798Z,6.13
2018-06-16T21:26:18.420Z,8.60
2018-06-16T21:28:47.218Z,6.50
2018-06-16T21:31:15.850Z,5.13
2018-06-16T21:33:44.562Z,5.57
2018-06-16T21:36:13.419Z,5.70
2018-06-16T21:38:42.506Z,8.20
2018-06-16T21:41:11.088Z,4.87
2018-06-16T21:43:39.838Z,6.67
2018-06-16T21:46:08.374Z,6.03
2018-06-16T21:48:36.892Z,5.83
2018-06-16T21:51:05.460Z,5.40
2018-06-16T21:53:33.985Z,5.00
2018-06-16T21:56:02.500Z,7.97
2018-06-16T21:58:31.431Z,5.33
2018-06-16T22:01:00.036Z,8.40
2018-06-16T22:03:28.928Z,12.53
2018-06-16T22:05:57.464Z,5.07
2018-06-16T22:08:32.417Z,6.63
2018-06-16T22:11:04.673Z,6.63
2018-06-16T22:13:33.727Z,5.83
2018-06-16T22:16:02.335Z,4.90
2018-06-16T22:18:31.776Z,5.50
2018-06-16T22:21:00.495Z,6.33
2018-06-16T22:23:29.642Z,6.83
2018-06-16T22:25:58.969Z,5.13
2018-06-16T22:28:27.594Z,9.03
2018-06-16T22:30:56.406Z,8.53
2018-06-16T22:33:25.449Z,6.13
2018-06-16T22:35:53.976Z,6.67
2018-06-16T22:38:22.861Z,5.37
2018-06-16T22:40:51.370Z,5.70
2018-06-16T22:43:19.911Z,7.20
2018-06-16T22:45:48.898Z,6.20
2018-06-16T22:48:17.405Z,5.30
2018-06-16T22:50:46.523Z,8.80
2018-06-16T22:53:15.124Z,7.50
2018-06-16T22:55:43.737Z,7.83
2018-06-16T22:58:12.271Z,9.37
2018-06-16T23:00:40.759Z,5.90
2018-06-16T23:03:09.638Z,6.90
2018-06-16T23:05:38.127Z,6.90
2018-06-16T23:08:06.657Z,6.13
2018-06-16T23:10:35.123Z,5.63
2018-06-16T23:13:03.973Z,12.33
2018-06-16T23:15:32.558Z,5.10
2018-06-16T23:18:01.518Z,6.37
2018-06-16T23:20:31.305Z,5.17
2018-06-16T23:22:59.931Z,7.10
2018-06-16T23:25:28.432Z,6.60
2018-06-16T23:27:57.033Z,6.03
2018-06-16T23:30:25.614Z,7.93
2018-06-16T23:32:54.097Z,6.47
2018-06-16T23:35:22.575Z,6.60
2018-06-16T23:37:51.705Z,5.87
2018-06-16T23:40:20.290Z,8.50
2018-06-16T23:42:48.760Z,6.53
2018-06-16T23:45:17.317Z,14.03
2018-06-16T23:47:45.800Z,10.17
2018-06-16T23:50:14.321Z,8.67
2018-06-16T23:52:42.862Z,7.73
2018-06-16T23:55:11.686Z,7.70
2018-06-16T23:57:40.291Z,13.40
